Terminal Aerodrome Forecast
Issued by NWS

Home | Current Version | Previous Version | Text Only | Print | Product List | Glossary On
Versions: 1 2 3 4 5 6 7 8 9 10 11 12 13 14 15 16
000
FTUS41 KPBZ 280500
TAFFKL
TAF
KFKL 280526Z 2806/2906 24008KT 2SM -RA OVC005
     FM280900 28007KT 4SM -RA OVC008
     FM281100 30006KT P6SM -SHRA OVC015
     FM281800 31006KT P6SM BKN022
      AMD LTD TO CLD VIS AND WIND=

USA.gov is the U.S. government's official web portal to all federal, state and local government web resources and services.